Pagrindinis puslapis
METAR-TAF:

METAR-TAF

Oro uostai :

Moldė, Norvegija

platuma: 62-45N, ilguma: 007-16E, Aukštis: 0 m

Dabartinis oras

Ataskaita buvo paskelbta 18 minutes, ne 05:50 UTC
Vėjas 12 kt iš Vakarų
Temperatūra 14°C
Drėgmė 77%
Slėgis 1004 hPa
Matomumas 10 km arba daugiau
Mažai debesys ne aukštis 3000 ft
Su prošvaistėmis ne aukštis 5500 ft
lietus

METAR: ENML 200550Z 28012KT 9999 -SHRA FEW030 BKN055 14/10 Q1004

Laikas: 08:08 (06:08 UTC)

Prognozė

Ataskaita buvo paskelbta 1 valandą ir 8 minutes, ne 05:00 UTC
Prognozė galioja nuo 20 metu 06 UTC su 20 metu 15 UTC
Vėjas 8 kt iš Vakarų
Matomumas 10 km arba daugiau
Mažai debesys ne aukštis 2000 ft, aukštai iškilę kamuoliniai debesys.
Su prošvaistėmis ne aukštis 3500 ft
lietus
Laikinai
nuo 20 metu 06 UTC su 20 metu 15 UTC
Su prošvaistėmis ne aukštis 2000 ft, Liūtiniai kamuoliniai debesys.
lietus

TAF: ENML 200500Z 2006/2015 28008KT 9999 -SHRA FEW020TCU BKN035 TEMPO 2006/2015 SHRA BKN020CB

Orai ataskaitas ir orų prognozės (METAR, TAF).

turimą stotys yra geltonos ir raudonos taškus žemėlapyje.

Perkelti pele per norėdami pamatyti stoties vardą.

Tada spustelėkite, norėdami matyti oro stebėjimo ir prognozės.

Norėdami pakeisti žemėlapį: spustelėkite ant žalios mygtukų su juodo kryžiaus žemyn,; žalią mygtuką su brūkšneliu, jei norite nutolinti; arba žalių rodyklių gretimoms žemėlapius.


METAR-TAF: